Time;durP1;ratioP1;P1;durP2;ratioP2;P2;SDS_P1;SDS_P2;PMS_P1;PMS_P2;Temp;Humidity;BMP_temperature;BMP_pressure;BME280_temperature;BME280_humidity;BME280_pressure;Samples;Min_cycle;Max_cycle;Signal;HPM_P1;HPM_P2
2021/12/27 00:01:45;;;;;;;60.63;29.23;;;;;;;-7.46;69.77;101346.64;1694048;84;20895;-77
2021/12/27 00:04:13;;;;;;;63.83;28.15;;;;;;;-7.53;70.31;101343.94;1693965;84;20991;-78
2021/12/27 00:06:40;;;;;;;64.15;28.65;;;;;;;-7.57;70.64;101342.55;1694109;83;21111;-79
2021/12/27 00:09:08;;;;;;;60.20;30.32;;;;;;;-7.61;70.85;101338.19;1693779;84;20947;-78
2021/12/27 00:11:37;;;;;;;65.78;31.48;;;;;;;-7.62;70.99;101343.70;1693823;84;20895;-78
2021/12/27 00:14:05;;;;;;;69.95;33.02;;;;;;;-7.64;70.92;101348.31;1693832;84;20954;-78
2021/12/27 00:16:32;;;;;;;93.55;42.70;;;;;;;-7.65;70.98;101352.94;1694065;83;20919;-76
2021/12/27 00:18:58;;;;;;;87.92;42.03;;;;;;;-7.67;70.40;101350.75;1688854;84;21803;-77
2021/12/27 00:21:25;;;;;;;90.05;42.60;;;;;;;-7.73;69.75;101356.15;1689028;83;20895;-77
2021/12/27 00:23:52;;;;;;;76.55;40.03;;;;;;;-7.76;69.31;101353.92;1688791;83;20944;-77
2021/12/27 00:26:21;;;;;;;61.15;32.48;;;;;;;-7.81;68.86;101345.31;1688704;84;21943;-79
2021/12/27 00:28:47;;;;;;;65.37;32.98;;;;;;;-7.88;68.69;101344.70;1688858;83;20900;-79
2021/12/27 00:31:16;;;;;;;74.85;36.80;;;;;;;-7.97;68.92;101337.67;1689244;85;21148;-79
2021/12/27 00:33:43;;;;;;;63.42;31.07;;;;;;;-8.07;68.92;101342.05;1688800;85;20979;-81
2021/12/27 00:36:10;;;;;;;73.90;32.10;;;;;;;-8.17;68.98;101344.34;1689090;85;20936;-80
2021/12/27 00:38:37;;;;;;;60.67;26.52;;;;;;;-8.24;68.99;101353.90;1688887;84;20981;-79
2021/12/27 00:41:05;;;;;;;59.67;27.80;;;;;;;-8.29;69.20;101351.65;1688826;85;20998;-80
2021/12/27 00:43:32;;;;;;;51.37;26.90;;;;;;;-8.36;69.25;101361.16;1688883;83;21154;-80
2021/12/27 00:45:59;;;;;;;52.30;27.85;;;;;;;-8.44;69.21;101359.72;1689049;85;20965;-79
2021/12/27 00:51:27;;;;;;;57.60;28.32;;;;;;;-8.57;69.37;101363.98;1854334;76;22574;-78
2021/12/27 00:53:54;;;;;;;51.33;25.08;;;;;;;-8.68;69.33;101367.89;1822270;78;21001;-79
2021/12/27 00:56:21;;;;;;;56.20;29.77;;;;;;;-8.74;69.37;101371.09;1822091;78;21173;-80
2021/12/27 00:58:50;;;;;;;58.75;29.27;;;;;;;-8.79;69.25;101368.83;1821980;78;21306;-80
2021/12/27 01:01:17;;;;;;;61.37;29.77;;;;;;;-8.86;69.03;101371.58;1822070;78;20883;-79
2021/12/27 01:03:45;;;;;;;54.53;27.62;;;;;;;-8.93;68.81;101367.55;1821852;78;20975;-79
2021/12/27 01:06:11;;;;;;;54.98;27.15;;;;;;;-9.02;68.70;101363.89;1822076;78;20880;-79
2021/12/27 01:08:39;;;;;;;54.65;27.25;;;;;;;-9.08;68.77;101369.19;1822077;78;21122;-79
2021/12/27 01:11:22;;;;;;;51.23;24.92;;;;;;;-9.19;68.99;101370.10;1790225;78;21513;-80
2021/12/27 01:13:45;;;;;;;54.45;26.93;;;;;;;-9.25;69.07;101372.05;1821011;78;20962;-79
2021/12/27 01:16:13;;;;;;;49.00;26.37;;;;;;;-9.27;69.02;101366.44;1821634;78;20970;-79
2021/12/27 01:18:48;;;;;;;55.15;26.55;;;;;;;-9.29;69.08;101367.69;1822064;78;20954;-80
2021/12/27 01:21:19;;;;;;;50.95;24.02;;;;;;;-9.31;69.18;101371.84;1822567;78;21099;-78
2021/12/27 01:23:46;;;;;;;49.50;26.07;;;;;;;-9.33;69.14;101371.34;1821944;78;20876;-78
2021/12/27 01:26:14;;;;;;;45.88;23.50;;;;;;;-9.32;69.25;101374.33;1822030;78;20962;-79
2021/12/27 01:28:41;;;;;;;53.25;26.20;;;;;;;-9.33;69.15;101369.66;1821962;78;20900;-78
2021/12/27 01:31:08;;;;;;;45.25;23.67;;;;;;;-9.32;69.02;101375.19;1821952;78;20926;-78
2021/12/27 01:33:35;;;;;;;49.15;23.27;;;;;;;-9.32;68.94;101379.41;1790599;78;21164;-78
2021/12/27 01:36:03;;;;;;;46.42;24.57;;;;;;;-9.35;68.66;101381.86;1821871;78;21410;-79
2021/12/27 01:38:30;;;;;;;49.93;23.65;;;;;;;-9.40;68.42;101382.56;1822482;78;20907;-78
2021/12/27 01:40:57;;;;;;;47.95;23.40;;;;;;;-9.45;68.24;101382.82;1822419;78;20967;-76
2021/12/27 01:43:32;;;;;;;48.87;23.25;;;;;;;-9.52;68.06;101373.25;1817082;78;20927;-78
2021/12/27 01:46:04;;;;;;;51.05;24.02;;;;;;;-9.62;68.12;101379.70;1822183;78;21187;-79
2021/12/27 01:48:37;;;;;;;54.25;26.48;;;;;;;-9.71;68.28;101377.26;1822147;78;20923;-79
2021/12/27 01:51:03;;;;;;;52.50;28.60;;;;;;;-9.82;68.48;101388.30;1824666;78;20967;-79
2021/12/27 01:53:32;;;;;;;58.35;25.95;;;;;;;-9.91;68.73;101383.77;1825669;78;20876;-78
2021/12/27 01:55:59;;;;;;;49.88;25.60;;;;;;;-9.94;68.76;101389.12;1825418;78;20888;-79
2021/12/27 01:58:27;;;;;;;55.80;26.60;;;;;;;-9.96;68.69;101388.20;1825594;78;21076;-78
2021/12/27 02:00:56;;;;;;;57.35;27.95;;;;;;;-10.02;68.41;101385.91;1825190;78;20997;-78
2021/12/27 02:03:27;;;;;;;54.48;27.00;;;;;;;-10.08;68.25;101395.83;1825081;78;21332;-80
2021/12/27 02:05:55;;;;;;;58.38;27.65;;;;;;;-10.15;68.02;101397.69;1825419;78;20899;-78
2021/12/27 02:08:22;;;;;;;61.63;27.55;;;;;;;-10.21;68.09;101394.92;1828356;78;20880;-76
2021/12/27 02:10:49;;;;;;;48.35;26.40;;;;;;;-10.22;68.19;101391.53;1826730;78;21161;-79
2021/12/27 02:13:18;;;;;;;48.08;23.55;;;;;;;-10.23;68.17;101391.45;1824632;78;21416;-78
2021/12/27 02:15:45;;;;;;;44.55;23.80;;;;;;;-10.25;68.11;101392.69;1825027;78;20931;-77
2021/12/27 02:18:13;;;;;;;45.17;23.83;;;;;;;-10.27;68.12;101395.58;1824884;78;22111;-78
2021/12/27 02:20:41;;;;;;;52.40;23.60;;;;;;;-10.29;68.02;101400.13;1824964;78;20978;-78
2021/12/27 02:23:15;;;;;;;44.08;21.60;;;;;;;-10.34;67.90;101396.57;1826939;78;21113;-78
2021/12/27 02:25:40;;;;;;;43.05;20.72;;;;;;;-10.39;68.05;101402.73;1828335;78;20915;-77
2021/12/27 02:28:08;;;;;;;35.58;20.00;;;;;;;-10.46;68.14;101404.17;1828444;78;20973;-77
2021/12/27 02:30:36;;;;;;;35.55;19.12;;;;;;;-10.50;68.31;101401.06;1826490;78;20895;-78
2021/12/27 02:33:05;;;;;;;42.90;21.62;;;;;;;-10.49;68.50;101406.61;1825983;78;20880;-77
2021/12/27 02:35:38;;;;;;;37.17;20.95;;;;;;;-10.48;68.66;101407.05;1825739;78;21154;-78
2021/12/27 02:38:06;;;;;;;42.10;20.37;;;;;;;-10.46;68.80;101409.25;1825408;78;20986;-78
2021/12/27 02:40:33;;;;;;;49.13;23.92;;;;;;;-10.45;68.72;101416.44;1825079;78;20932;-78
2021/12/27 02:43:17;;;;;;;45.90;24.63;;;;;;;-10.53;68.69;101414.89;1824830;78;20887;-77
2021/12/27 02:45:55;;;;;;;47.95;22.82;;;;;;;-10.61;68.85;101417.94;1825051;78;21057;-78
2021/12/27 02:48:26;;;;;;;48.33;24.57;;;;;;;-10.68;68.96;101411.35;1824695;78;21396;-76
2021/12/27 02:50:53;;;;;;;47.90;25.80;;;;;;;-10.72;68.97;101418.37;1822688;78;20966;-75
2021/12/27 02:53:20;;;;;;;47.78;25.57;;;;;;;-10.77;68.73;101414.80;1821510;78;21365;-76
2021/12/27 02:55:49;;;;;;;47.50;26.35;;;;;;;-10.82;68.62;101416.70;1821689;78;20919;-78
2021/12/27 02:58:16;;;;;;;42.73;22.58;;;;;;;-10.84;68.78;101426.77;1821751;78;21377;-79
2021/12/27 03:00:56;;;;;;;45.23;25.43;;;;;;;-10.85;68.89;101422.11;1821894;78;21728;-77
2021/12/27 03:03:23;;;;;;;46.80;23.25;;;;;;;-10.88;68.92;101427.44;1821230;78;20907;-78
2021/12/27 03:05:50;;;;;;;43.33;22.90;;;;;;;-10.89;69.03;101437.98;1821401;78;20883;-79
2021/12/27 03:08:17;;;;;;;38.75;20.43;;;;;;;-10.89;69.07;101445.58;1821332;78;20966;-78
2021/12/27 03:10:49;;;;;;;42.43;22.62;;;;;;;-10.87;69.04;101441.83;1821242;78;21401;-77
2021/12/27 03:13:21;;;;;;;38.75;20.50;;;;;;;-10.87;68.88;101435.11;1821250;78;21792;-78
2021/12/27 03:15:54;;;;;;;34.55;19.27;;;;;;;-10.93;68.75;101437.80;1821310;78;21421;-79
2021/12/27 03:18:21;;;;;;;38.95;17.12;;;;;;;-10.94;69.08;101436.05;1820999;78;21173;-78
2021/12/27 03:20:49;;;;;;;34.65;19.27;;;;;;;-10.93;68.96;101444.98;1821221;78;21381;-78
2021/12/27 03:23:16;;;;;;;31.68;17.95;;;;;;;-10.93;68.86;101446.66;1821285;78;20939;-79
2021/12/27 03:25:43;;;;;;;41.28;19.27;;;;;;;-10.95;68.57;101442.80;1821251;78;21142;-78
2021/12/27 03:28:11;;;;;;;39.00;19.35;;;;;;;-10.99;68.36;101437.55;1821466;78;20919;-77
2021/12/27 03:30:38;;;;;;;36.03;18.35;;;;;;;-11.03;68.09;101438.22;1821313;78;20962;-77
2021/12/27 03:33:05;;;;;;;40.85;20.43;;;;;;;-11.08;68.33;101438.89;1821384;78;20998;-77
2021/12/27 03:35:36;;;;;;;35.78;18.87;;;;;;;-11.07;68.40;101447.34;1821587;78;21322;-78
2021/12/27 03:38:09;;;;;;;37.93;19.23;;;;;;;-11.10;68.45;101438.37;1821417;78;21138;-79
2021/12/27 03:40:38;;;;;;;37.95;20.32;;;;;;;-11.13;68.00;101446.70;1821678;78;20872;-82
2021/12/27 03:43:05;;;;;;;41.42;20.08;;;;;;;-11.18;68.02;101448.56;1821416;78;20974;-79
2021/12/27 03:45:37;;;;;;;37.85;18.73;;;;;;;-11.19;68.30;101452.77;1821538;78;20860;-79
2021/12/27 03:48:06;;;;;;;35.45;18.85;;;;;;;-11.13;68.26;101448.38;1821411;78;20951;-79
2021/12/27 03:50:33;;;;;;;45.58;19.55;;;;;;;-11.13;68.09;101451.77;1822191;78;21158;-80
2021/12/27 03:53:00;;;;;;;39.18;19.35;;;;;;;-11.11;68.05;101453.11;1824796;78;21317;-80
2021/12/27 03:55:27;;;;;;;40.15;19.77;;;;;;;-11.10;67.97;101459.89;1825162;78;20958;-78
2021/12/27 03:58:04;;;;;;;40.92;19.70;;;;;;;-11.11;67.79;101458.17;1824752;78;20970;-80
2021/12/27 04:00:43;;;;;;;39.25;20.82;;;;;;;-11.14;67.50;101465.62;1822976;78;20958;-80
2021/12/27 04:03:00;;;;;;;36.28;19.12;;;;;;;-11.18;67.33;101466.29;1822301;78;21983;-80
2021/12/27 04:05:28;;;;;;;44.90;20.88;;;;;;;-11.23;67.13;101467.77;1825159;78;20986;-79
2021/12/27 04:08:00;;;;;;;36.23;19.20;;;;;;;-11.29;66.94;101474.32;1824895;78;20903;-81
2021/12/27 04:10:25;;;;;;;43.30;20.82;;;;;;;-11.36;66.96;101470.18;1824319;78;20986;-81
2021/12/27 04:12:53;;;;;;;41.60;21.23;;;;;;;-11.43;67.09;101479.17;1824762;78;20867;-80
2021/12/27 04:15:21;;;;;;;40.90;18.05;;;;;;;-11.46;67.13;101479.05;1824695;78;21942;-78
2021/12/27 04:17:48;;;;;;;38.35;18.65;;;;;;;-11.50;67.00;101489.84;1824759;78;20915;-80
2021/12/27 04:20:15;;;;;;;36.42;19.15;;;;;;;-11.55;66.86;101487.52;1824816;78;20986;-80
2021/12/27 04:22:43;;;;;;;38.10;19.42;;;;;;;-11.56;67.37;101489.56;1824892;78;20852;-79
2021/12/27 04:25:10;;;;;;;47.98;19.87;;;;;;;-11.54;67.59;101496.83;1825200;78;21342;-80
2021/12/27 04:27:37;;;;;;;40.08;20.32;;;;;;;-11.50;67.76;101505.02;1824878;78;21777;-79
2021/12/27 04:30:04;;;;;;;34.43;17.87;;;;;;;-11.50;68.05;101499.55;1825078;78;20871;-80
2021/12/27 04:32:33;;;;;;;38.42;17.82;;;;;;;-11.47;68.14;101503.88;1824795;78;20918;-80
2021/12/27 04:35:00;;;;;;;42.38;20.90;;;;;;;-11.49;67.75;101497.91;1824896;78;21314;-79
2021/12/27 04:37:30;;;;;;;41.02;19.20;;;;;;;-11.57;67.58;101496.70;1824903;78;20919;-79
2021/12/27 04:39:58;;;;;;;34.38;18.17;;;;;;;-11.62;67.59;101504.09;1825210;78;21806;-79
2021/12/27 04:42:25;;;;;;;41.88;17.48;;;;;;;-11.60;67.70;101505.03;1824596;78;20931;-79
2021/12/27 04:44:52;;;;;;;34.48;17.90;;;;;;;-11.58;67.61;101507.23;1825094;78;21322;-80
2021/12/27 04:47:19;;;;;;;31.75;15.25;;;;;;;-11.57;67.51;101511.48;1824851;78;20884;-80
2021/12/27 04:49:46;;;;;;;41.02;20.15;;;;;;;-11.56;67.46;101506.01;1825103;78;20950;-80
2021/12/27 04:52:14;;;;;;;50.95;21.97;;;;;;;-11.57;67.41;101510.21;1824687;78;21002;-81
2021/12/27 04:54:42;;;;;;;58.35;25.15;;;;;;;-11.58;67.09;101512.29;1824687;78;20825;-80
2021/12/27 04:57:09;;;;;;;47.65;21.40;;;;;;;-11.65;66.96;101519.12;1824759;77;20887;-82
2021/12/27 04:59:36;;;;;;;60.05;26.23;;;;;;;-11.69;67.43;101517.27;1824885;78;20931;-80
2021/12/27 05:02:03;;;;;;;52.90;24.75;;;;;;;-11.66;67.46;101516.54;1825069;77;20852;-82
2021/12/27 05:04:30;;;;;;;45.38;20.35;;;;;;;-11.64;67.44;101527.59;1824726;78;21932;-78
2021/12/27 05:06:58;;;;;;;49.10;22.02;;;;;;;-11.63;67.27;101528.91;1824637;77;21429;-81
2021/12/27 05:09:25;;;;;;;54.48;25.95;;;;;;;-11.63;67.12;101528.05;1824911;78;21440;-79
2021/12/27 05:11:51;;;;;;;49.50;24.57;;;;;;;-11.62;67.13;101533.59;1824591;77;21366;-81
2021/12/27 05:14:18;;;;;;;66.97;28.80;;;;;;;-11.62;67.16;101534.45;1824825;77;21349;-80
2021/12/27 05:16:45;;;;;;;64.77;29.57;;;;;;;-11.62;67.05;101536.13;1824687;78;21211;-78
2021/12/27 05:19:14;;;;;;;56.35;26.55;;;;;;;-11.61;66.99;101545.43;1824662;77;21397;-82
2021/12/27 05:21:41;;;;;;;58.58;24.07;;;;;;;-11.62;66.88;101542.05;1824867;77;21386;-79
2021/12/27 05:24:11;;;;;;;60.15;26.90;;;;;;;-11.63;66.71;101552.94;1824703;77;20983;-81
2021/12/27 05:26:38;;;;;;;63.60;29.40;;;;;;;-11.66;66.58;101555.34;1824761;77;20919;-77
2021/12/27 05:29:05;;;;;;;84.37;37.53;;;;;;;-11.70;66.54;101564.45;1824821;78;21122;-78
2021/12/27 05:31:33;;;;;;;98.78;38.13;;;;;;;-11.70;66.63;101566.12;1825541;77;21321;-79
2021/12/27 05:34:00;;;;;;;87.90;38.88;;;;;;;-11.78;66.45;101560.72;1826014;77;20844;-81
2021/12/27 05:36:26;;;;;;;86.30;34.18;;;;;;;-11.83;66.55;101563.42;1827318;78;20930;-78
2021/12/27 05:38:56;;;;;;;79.07;33.53;;;;;;;-11.84;67.05;101568.02;1827292;77;20942;-79
2021/12/27 05:41:26;;;;;;;87.40;34.88;;;;;;;-11.84;67.00;101569.29;1825407;77;21121;-79
2021/12/27 05:43:53;;;;;;;74.77;32.93;;;;;;;-11.83;66.72;101572.67;1825172;77;20891;-80
2021/12/27 05:46:21;;;;;;;74.22;30.85;;;;;;;-11.86;66.56;101583.52;1825071;77;20903;-82
2021/12/27 05:48:48;;;;;;;71.80;31.73;;;;;;;-11.84;66.76;101582.34;1825071;78;20958;-80
2021/12/27 05:51:15;;;;;;;95.47;47.83;;;;;;;-11.82;66.75;101585.41;1824845;77;21053;-81
2021/12/27 05:53:42;;;;;;;86.28;40.33;;;;;;;-11.78;66.79;101586.02;1825092;78;21953;-80
2021/12/27 05:56:09;;;;;;;93.62;42.38;;;;;;;-11.75;66.72;101594.14;1824951;77;20875;-81
2021/12/27 05:58:37;;;;;;;92.92;43.33;;;;;;;-11.72;66.72;101603.98;1824939;77;20919;-82
2021/12/27 06:01:04;;;;;;;95.70;43.48;;;;;;;-11.70;66.65;101606.59;1824708;78;20936;-79
2021/12/27 06:03:34;;;;;;;100.35;44.70;;;;;;;-11.67;66.66;101611.78;1824817;78;21475;-80
2021/12/27 06:06:01;;;;;;;100.50;49.93;;;;;;;-11.62;66.70;101610.75;1824789;77;21148;-80
2021/12/27 06:08:30;;;;;;;99.70;43.75;;;;;;;-11.58;66.80;101610.97;1824836;78;21396;-80
2021/12/27 06:10:57;;;;;;;93.95;45.85;;;;;;;-11.54;66.64;101615.75;1824875;78;21073;-81
2021/12/27 06:13:24;;;;;;;107.63;54.20;;;;;;;-11.56;66.32;101622.40;1825972;78;20950;-80
2021/12/27 06:15:51;;;;;;;94.80;45.05;;;;;;;-11.55;66.60;101625.02;1827143;78;20861;-80
2021/12/27 06:18:18;;;;;;;115.03;55.55;;;;;;;-11.49;66.77;101629.09;1826118;77;21098;-80
2021/12/27 06:20:45;;;;;;;130.60;63.00;;;;;;;-11.42;66.75;101642.03;1825156;77;20939;-80
2021/12/27 06:23:12;;;;;;;90.87;40.45;;;;;;;-11.34;66.74;101634.37;1825606;78;20895;-83
2021/12/27 06:25:39;;;;;;;94.20;43.95;;;;;;;-11.28;66.48;101640.58;1825270;77;20893;-81
2021/12/27 06:28:08;;;;;;;83.30;34.38;;;;;;;-11.21;66.34;101642.12;1825624;78;20931;-82
2021/12/27 06:30:37;;;;;;;68.45;31.57;;;;;;;-11.16;66.35;101652.05;1824938;78;21456;-81
2021/12/27 06:33:06;;;;;;;65.03;28.77;;;;;;;-11.06;66.44;101654.20;1825099;77;20919;-81
2021/12/27 06:35:33;;;;;;;84.62;40.63;;;;;;;-10.97;66.42;101649.95;1824963;77;20879;-81
2021/12/27 06:38:00;;;;;;;86.90;39.85;;;;;;;-10.91;66.44;101649.82;1824983;77;20934;-82
2021/12/27 06:40:27;;;;;;;93.55;41.37;;;;;;;-10.87;66.63;101646.63;1824954;77;20967;-81
2021/12/27 06:42:55;;;;;;;72.92;35.73;;;;;;;-10.78;66.80;101651.23;1824794;78;21143;-82
2021/12/27 06:45:22;;;;;;;83.67;36.70;;;;;;;-10.72;66.83;101641.73;1824813;77;20879;-80
2021/12/27 06:47:49;;;;;;;89.77;37.98;;;;;;;-10.62;66.88;101650.63;1825160;77;21037;-81
2021/12/27 06:50:16;;;;;;;85.00;34.58;;;;;;;-10.52;66.86;101653.59;1824942;77;20884;-81
2021/12/27 06:52:46;;;;;;;82.37;36.75;;;;;;;-10.41;66.79;101646.84;1824876;78;20990;-79
2021/12/27 06:55:14;;;;;;;82.30;39.58;;;;;;;-10.36;66.70;101655.50;1824830;78;21080;-84
2021/12/27 06:57:41;;;;;;;89.20;42.73;;;;;;;-10.30;66.81;101664.64;1825041;78;20910;-81
2021/12/27 07:00:11;;;;;;;107.17;52.73;;;;;;;-10.26;66.92;101662.25;1824979;78;21472;-81
2021/12/27 07:02:39;;;;;;;145.07;72.75;;;;;;;-10.19;67.18;101669.72;1825495;78;20931;-82
2021/12/27 07:05:06;;;;;;;169.20;85.87;;;;;;;-10.10;67.50;101662.48;1824963;78;20939;-81
2021/12/27 07:07:34;;;;;;;98.87;50.98;;;;;;;-9.98;67.66;101666.31;1824908;78;21141;-81
2021/12/27 07:10:01;;;;;;;106.72;49.65;;;;;;;-9.89;67.63;101665.41;1825229;78;20879;-84
2021/12/27 07:12:29;;;;;;;84.97;40.23;;;;;;;-9.83;67.54;101672.01;1825365;78;20962;-80
2021/12/27 07:14:56;;;;;;;81.37;39.03;;;;;;;-9.77;67.62;101674.80;1824965;78;20981;-81
2021/12/27 07:17:23;;;;;;;97.15;46.20;;;;;;;-9.72;67.66;101669.91;1825170;78;20871;-80
2021/12/27 07:19:49;;;;;;;92.08;45.40;;;;;;;-9.64;67.71;101665.59;1824929;78;21149;-80
2021/12/27 07:22:16;;;;;;;91.72;49.10;;;;;;;-9.57;67.80;101666.70;1825464;78;20962;-81
2021/12/27 07:24:44;;;;;;;102.65;51.85;;;;;;;-9.46;67.92;101668.39;1825159;78;20914;-83
2021/12/27 07:27:11;;;;;;;108.67;52.70;;;;;;;-9.32;68.02;101670.17;1825295;78;20888;-78
2021/12/27 07:29:38;;;;;;;118.60;57.53;;;;;;;-9.22;68.02;101673.53;1824814;78;20966;-79
2021/12/27 07:32:06;;;;;;;117.57;53.30;;;;;;;-9.08;67.94;101677.44;1825103;78;21051;-80
2021/12/27 07:34:33;;;;;;;122.65;57.93;;;;;;;-8.95;67.90;101677.50;1824949;78;20867;-81
2021/12/27 07:37:02;;;;;;;119.67;61.83;;;;;;;-8.83;67.84;101683.00;1824932;78;20864;-79
2021/12/27 07:39:29;;;;;;;121.92;60.98;;;;;;;-8.70;67.83;101685.59;1824896;78;20927;-82
2021/12/27 07:41:56;;;;;;;131.35;61.60;;;;;;;-8.58;67.92;101681.34;1826556;78;20876;-84
2021/12/27 07:44:31;;;;;;;124.70;61.05;;;;;;;-8.45;68.13;101678.83;1826949;78;21054;-83
2021/12/27 07:46:59;;;;;;;125.02;58.17;;;;;;;-8.31;68.24;101681.80;1826468;78;20863;-84
2021/12/27 07:49:26;;;;;;;115.85;57.33;;;;;;;-8.18;68.36;101686.11;1824934;78;20962;-82
2021/12/27 07:51:55;;;;;;;110.10;56.70;;;;;;;-8.04;68.51;101688.25;1824905;78;20880;-80
2021/12/27 07:54:22;;;;;;;105.90;50.15;;;;;;;-7.94;68.62;101686.06;1824885;78;20876;-79
2021/12/27 07:56:49;;;;;;;100.62;48.10;;;;;;;-7.83;68.75;101687.66;1825159;78;21073;-79
2021/12/27 07:59:18;;;;;;;103.10;51.90;;;;;;;-7.73;68.90;101687.56;1824670;78;20939;-84
2021/12/27 08:01:45;;;;;;;109.45;49.48;;;;;;;-7.62;69.01;101677.72;1824759;78;21045;-78
2021/12/27 08:04:12;;;;;;;106.07;50.67;;;;;;;-7.54;69.11;101678.80;1824635;78;20891;-79
2021/12/27 08:06:40;;;;;;;109.12;52.33;;;;;;;-7.44;69.26;101677.42;1824914;78;21393;-79
2021/12/27 08:09:09;;;;;;;123.13;59.60;;;;;;;-7.37;69.35;101680.61;1824843;78;21401;-76
2021/12/27 08:11:35;;;;;;;129.07;67.15;;;;;;;-7.32;69.46;101682.88;1824950;78;20907;-79
2021/12/27 08:14:04;;;;;;;131.20;65.12;;;;;;;-7.32;69.19;101678.63;1824797;78;20844;-81
2021/12/27 08:16:31;;;;;;;133.87;61.73;;;;;;;-7.32;69.09;101676.50;1825078;78;20895;-79
2021/12/27 08:18:58;;;;;;;128.32;62.38;;;;;;;-7.33;69.12;101673.52;1825119;78;21408;-78
2021/12/27 08:21:27;;;;;;;120.37;54.83;;;;;;;-7.33;69.24;101671.83;1824761;78;21508;-80
2021/12/27 08:23:54;;;;;;;110.57;52.43;;;;;;;-7.33;69.39;101674.37;1824671;78;20875;-79
2021/12/27 08:26:21;;;;;;;114.03;50.58;;;;;;;-7.30;69.67;101670.63;1825295;78;20947;-80
2021/12/27 08:28:50;;;;;;;117.22;53.83;;;;;;;-7.24;69.83;101667.41;1824785;78;21430;-79
2021/12/27 08:31:17;;;;;;;108.22;51.33;;;;;;;-7.11;69.98;101664.82;1825226;78;20962;-81
2021/12/27 08:33:44;;;;;;;111.95;55.95;;;;;;;-6.97;70.02;101663.52;1825730;78;21134;-79
2021/12/27 08:36:11;;;;;;;101.12;51.70;;;;;;;-6.84;69.88;101660.06;1825083;78;20903;-80
2021/12/27 08:38:38;;;;;;;98.67;51.50;;;;;;;-6.71;69.83;101655.75;1824652;78;20958;-80
2021/12/27 08:41:05;;;;;;;106.70;51.98;;;;;;;-6.60;69.68;101656.02;1825044;78;20998;-80
2021/12/27 08:43:32;;;;;;;110.83;51.70;;;;;;;-6.48;69.61;101660.19;1824820;78;20892;-79
2021/12/27 08:45:59;;;;;;;99.87;46.98;;;;;;;-6.36;69.41;101660.48;1825053;78;21108;-80
2021/12/27 08:48:27;;;;;;;92.22;46.55;;;;;;;-6.26;69.36;101661.61;1824732;78;20966;-78
2021/12/27 08:50:54;;;;;;;79.97;36.25;;;;;;;-6.16;69.16;101661.41;1825120;78;20978;-80
2021/12/27 08:53:22;;;;;;;82.55;39.80;;;;;;;-6.08;69.08;101659.93;1821918;78;21417;-79
2021/12/27 08:55:49;;;;;;;80.87;38.40;;;;;;;-6.03;69.13;101661.31;1821260;78;20970;-79
2021/12/27 08:58:16;;;;;;;71.97;37.08;;;;;;;-5.94;69.15;101660.27;1821398;78;21196;-79
2021/12/27 09:00:43;;;;;;;96.35;46.10;;;;;;;-5.85;69.05;101656.23;1821408;78;20880;-80
2021/12/27 09:03:13;;;;;;;102.32;51.68;;;;;;;-5.79;68.91;101658.05;1821466;78;20857;-79
2021/12/27 09:05:40;;;;;;;92.97;48.68;;;;;;;-5.72;68.71;101658.62;1822093;78;20899;-79
2021/12/27 09:08:08;;;;;;;97.85;50.33;;;;;;;-5.59;68.47;101663.63;1824066;78;21448;-77
2021/12/27 09:10:35;;;;;;;70.00;35.85;;;;;;;-5.53;68.24;101662.91;1823073;78;21132;-81
2021/12/27 09:13:03;;;;;;;66.22;34.95;;;;;;;-5.42;68.30;101661.46;1822083;78;20841;-82
2021/12/27 09:15:30;;;;;;;62.33;33.38;;;;;;;-5.33;68.22;101668.47;1821793;78;20903;-80
2021/12/27 09:17:57;;;;;;;56.45;30.17;;;;;;;-5.26;68.22;101666.06;1821665;78;20935;-80
2021/12/27 09:20:26;;;;;;;59.33;30.92;;;;;;;-5.22;68.09;101668.28;1821582;78;20998;-78
2021/12/27 09:22:53;;;;;;;51.10;28.95;;;;;;;-5.21;67.73;101668.72;1821355;78;21069;-81
2021/12/27 09:25:21;;;;;;;47.08;26.23;;;;;;;-5.19;67.85;101662.38;1821508;78;20963;-79
2021/12/27 09:27:49;;;;;;;47.55;24.92;;;;;;;-5.14;67.89;101669.29;1821468;78;21009;-77
2021/12/27 09:30:16;;;;;;;42.23;24.43;;;;;;;-5.05;67.75;101666.92;1821778;78;21494;-77
2021/12/27 09:32:44;;;;;;;46.42;25.17;;;;;;;-5.00;67.58;101662.79;1821484;78;20880;-78
2021/12/27 09:35:10;;;;;;;39.20;23.40;;;;;;;-4.93;67.42;101658.66;1821561;78;21060;-79
2021/12/27 09:37:37;;;;;;;48.33;24.15;;;;;;;-4.85;67.29;101663.92;1821529;78;21459;-79
2021/12/27 09:40:07;;;;;;;41.98;21.95;;;;;;;-4.85;66.44;101660.08;1821487;78;20935;-79
2021/12/27 09:42:35;;;;;;;36.70;21.12;;;;;;;-4.99;66.28;101659.81;1821558;78;21073;-80
2021/12/27 09:45:02;;;;;;;39.75;22.10;;;;;;;-5.17;66.23;101663.27;1822102;78;20860;-80
2021/12/27 09:47:32;;;;;;;38.00;22.62;;;;;;;-5.33;66.37;101670.60;1822070;78;21160;-81
2021/12/27 09:49:59;;;;;;;36.70;22.75;;;;;;;-5.38;66.44;101672.20;1821913;78;20927;-81
2021/12/27 09:52:26;;;;;;;45.73;25.35;;;;;;;-5.43;66.41;101668.66;1821328;78;21444;-81
2021/12/27 09:54:52;;;;;;;42.30;24.50;;;;;;;-5.49;66.14;101667.23;1821355;78;20860;-79
2021/12/27 09:57:20;;;;;;;49.23;26.05;;;;;;;-5.68;66.03;101675.77;1821616;78;20994;-81
2021/12/27 09:59:47;;;;;;;53.78;28.17;;;;;;;-5.81;66.08;101671.61;1821480;78;21167;-81
2021/12/27 10:02:14;;;;;;;47.58;28.95;;;;;;;-5.96;66.15;101671.70;1821358;78;20919;-80
2021/12/27 10:04:40;;;;;;;62.43;34.20;;;;;;;-6.06;66.05;101679.98;1821502;78;21489;-81
2021/12/27 10:07:07;;;;;;;65.37;37.38;;;;;;;-6.18;66.00;101680.55;1816419;78;20892;-79
2021/12/27 10:09:35;;;;;;;73.28;36.85;;;;;;;-6.29;65.93;101678.98;1821372;78;21049;-81
2021/12/27 10:12:03;;;;;;;73.33;37.23;;;;;;;-6.40;65.97;101681.67;1821294;78;21142;-80
2021/12/27 10:14:30;;;;;;;69.22;37.38;;;;;;;-6.50;65.71;101680.54;1821353;78;20923;-80
2021/12/27 10:17:11;;;;;;;66.57;35.85;;;;;;;-6.61;65.81;101686.19;1821370;78;20911;-80
2021/12/27 10:19:38;;;;;;;68.40;35.90;;;;;;;-6.65;66.02;101682.67;1821358;78;20987;-80
2021/12/27 10:22:11;;;;;;;59.20;33.10;;;;;;;-6.65;65.99;101682.67;1821393;78;20997;-79
2021/12/27 10:24:38;;;;;;;62.62;35.68;;;;;;;-6.60;66.04;101691.72;1821452;78;21147;-80
2021/12/27 10:27:06;;;;;;;64.03;32.70;;;;;;;-6.56;66.08;101693.16;1821390;78;20919;-81
2021/12/27 10:29:36;;;;;;;61.70;32.58;;;;;;;-6.55;65.65;101699.97;1821649;78;20883;-81
2021/12/27 10:32:10;;;;;;;53.68;29.18;;;;;;;-6.60;65.42;101698.99;1821457;78;21053;-83
2021/12/27 10:34:43;;;;;;;65.70;33.08;;;;;;;-6.64;65.24;101697.59;1821522;78;20927;-82
2021/12/27 10:37:23;;;;;;;58.60;29.48;;;;;;;-6.70;65.45;101703.38;1821683;78;21159;-81
2021/12/27 10:39:56;;;;;;;66.53;31.12;;;;;;;-6.69;65.49;101705.12;1821567;78;20864;-80
2021/12/27 10:42:36;;;;;;;58.75;30.70;;;;;;;-6.68;65.43;101702.59;1821934;78;20930;-82
2021/12/27 10:45:07;;;;;;;59.88;31.68;;;;;;;-6.68;65.11;101706.83;1824112;78;20887;-80
2021/12/27 10:47:52;;;;;;;61.75;32.10;;;;;;;-6.74;65.03;101702.83;1813571;78;21468;-78
2021/12/27 10:50:27;;;;;;;66.72;36.73;;;;;;;-6.88;64.95;101704.58;1789061;80;21773;-81
2021/12/27 10:53:06;;;;;;;70.15;35.88;;;;;;;-6.94;65.61;101709.91;1788811;80;20919;-80
2021/12/27 10:55:38;;;;;;;62.38;35.68;;;;;;;-6.90;65.73;101710.45;1789256;80;21409;-78
2021/12/27 10:58:19;;;;;;;64.12;33.73;;;;;;;-6.85;65.76;101706.76;1788998;80;20907;-78
2021/12/27 11:00:55;;;;;;;64.07;33.48;;;;;;;-6.84;65.67;101706.81;1789099;79;20895;-79
2021/12/27 11:03:36;;;;;;;68.00;35.30;;;;;;;-6.91;65.30;101701.09;1788971;79;21145;-78
2021/12/27 11:06:08;;;;;;;62.35;33.48;;;;;;;-7.13;65.48;101699.17;1788988;80;20927;-81
2021/12/27 11:08:38;;;;;;;77.12;41.08;;;;;;;-7.30;65.86;101696.53;1789155;79;20959;-79
2021/12/27 11:11:06;;;;;;;74.77;41.05;;;;;;;-7.38;66.59;101690.32;1788965;80;20911;-79
2021/12/27 11:13:33;;;;;;;74.82;42.40;;;;;;;-7.32;67.05;101690.09;1789133;80;20925;-81